sensor_id;sensor_type;location;lat;lon;timestamp;pressure;altitude;pressure_sealevel;temperature;humidity
76586;BME280;65251;51.022;13.736;2023-07-28T00:00:02;98346.75;;;18.22;84.44
76586;BME280;65251;51.022;13.736;2023-07-28T00:00:34;98343.25;;;18.22;84.65
76586;BME280;65251;51.022;13.736;2023-07-28T00:01:05;98346.22;;;18.25;85.03
76586;BME280;65251;51.022;13.736;2023-07-28T00:01:37;98352.69;;;18.24;84.89
76586;BME280;65251;51.022;13.736;2023-07-28T00:02:08;98338.66;;;18.28;84.27
76586;BME280;65251;51.022;13.736;2023-07-28T00:02:39;98341.06;;;18.29;84.08
76586;BME280;65251;51.022;13.736;2023-07-28T00:03:09;98347.81;;;18.32;84.18
76586;BME280;65251;51.022;13.736;2023-07-28T00:03:41;98347.81;;;18.32;83.89
76586;BME280;65251;51.022;13.736;2023-07-28T00:04:12;98348.63;;;18.32;84.34
76586;BME280;65251;51.022;13.736;2023-07-28T00:04:43;98345.38;;;18.35;84.65
76586;BME280;65251;51.022;13.736;2023-07-28T00:05:14;98335.41;;;18.31;83.84
76586;BME280;65251;51.022;13.736;2023-07-28T00:05:45;98346.72;;;18.33;84.52
76586;BME280;65251;51.022;13.736;2023-07-28T00:06:16;98342.13;;;18.33;84.38
76586;BME280;65251;51.022;13.736;2023-07-28T00:06:47;98338.91;;;18.31;84.55
76586;BME280;65251;51.022;13.736;2023-07-28T00:07:18;98343.22;;;18.32;84.77
76586;BME280;65251;51.022;13.736;2023-07-28T00:07:50;98341.88;;;18.35;83.58
76586;BME280;65251;51.022;13.736;2023-07-28T00:08:20;98332.97;;;18.29;84.20
76586;BME280;65251;51.022;13.736;2023-07-28T00:08:51;98336.47;;;18.35;83.87
76586;BME280;65251;51.022;13.736;2023-07-28T00:09:22;98339.69;;;18.37;84.20
76586;BME280;65251;51.022;13.736;2023-07-28T00:09:54;98341.81;;;18.40;84.35
76586;BME280;65251;51.022;13.736;2023-07-28T00:10:25;98341.53;;;18.41;83.58
76586;BME280;65251;51.022;13.736;2023-07-28T00:10:56;98335.34;;;18.41;83.95
76586;BME280;65251;51.022;13.736;2023-07-28T00:11:26;98337.22;;;18.40;84.20
76586;BME280;65251;51.022;13.736;2023-07-28T00:11:57;98338.03;;;18.41;84.16
76586;BME280;65251;51.022;13.736;2023-07-28T00:12:29;98338.03;;;18.41;84.12
76586;BME280;65251;51.022;13.736;2023-07-28T00:13:00;98337.50;;;18.39;83.96
76586;BME280;65251;51.022;13.736;2023-07-28T00:13:32;98335.34;;;18.41;84.00
76586;BME280;65251;51.022;13.736;2023-07-28T00:14:03;98331.84;;;18.40;82.99
76586;BME280;65251;51.022;13.736;2023-07-28T00:14:35;98332.38;;;18.42;83.72
76586;BME280;65251;51.022;13.736;2023-07-28T00:15:08;98338.28;;;18.44;84.25
76586;BME280;65251;51.022;13.736;2023-07-28T00:15:38;98335.59;;;18.44;83.28
76586;BME280;65251;51.022;13.736;2023-07-28T00:16:10;98332.63;;;18.46;83.55
76586;BME280;65251;51.022;13.736;2023-07-28T00:16:41;98338.53;;;18.48;83.17
76586;BME280;65251;51.022;13.736;2023-07-28T00:17:12;98338.53;;;18.48;83.38
76586;BME280;65251;51.022;13.736;2023-07-28T00:17:43;98344.47;;;18.50;82.82
76586;BME280;65251;51.022;13.736;2023-07-28T00:18:14;98335.03;;;18.52;83.17
76586;BME280;65251;51.022;13.736;2023-07-28T00:18:45;98338.81;;;18.51;83.15
76586;BME280;65251;51.022;13.736;2023-07-28T00:19:16;98341.75;;;18.55;83.00
76586;BME280;65251;51.022;13.736;2023-07-28T00:19:48;98339.84;;;18.55;82.95
76586;BME280;65251;51.022;13.736;2023-07-28T00:20:18;98335.53;;;18.54;83.24
76586;BME280;65251;51.022;13.736;2023-07-28T00:20:49;98337.16;;;18.55;82.53
76586;BME280;65251;51.022;13.736;2023-07-28T00:21:20;98340.66;;;18.56;82.89
76586;BME280;65251;51.022;13.736;2023-07-28T00:21:52;98341.97;;;18.58;83.13
76586;BME280;65251;51.022;13.736;2023-07-28T00:22:23;98336.88;;;18.57;82.31
76586;BME280;65251;51.022;13.736;2023-07-28T00:22:53;98342.28;;;18.57;83.00
76586;BME280;65251;51.022;13.736;2023-07-28T00:23:24;98336.06;;;18.56;82.95
76586;BME280;65251;51.022;13.736;2023-07-28T00:23:55;98337.69;;;18.57;82.92
76586;BME280;65251;51.022;13.736;2023-07-28T00:24:27;98339.56;;;18.62;82.34
76586;BME280;65251;51.022;13.736;2023-07-28T00:24:57;98330.66;;;18.62;82.83
76586;BME280;65251;51.022;13.736;2023-07-28T00:25:28;98331.47;;;18.62;82.80
76586;BME280;65251;51.022;13.736;2023-07-28T00:25:59;98328.75;;;18.62;81.87
76586;BME280;65251;51.022;13.736;2023-07-28T00:26:31;98326.59;;;18.64;82.53
76586;BME280;65251;51.022;13.736;2023-07-28T00:27:02;98324.19;;;18.63;82.18
76586;BME280;65251;51.022;13.736;2023-07-28T00:27:32;98325.78;;;18.64;82.13
76586;BME280;65251;51.022;13.736;2023-07-28T00:28:03;98323.91;;;18.64;82.93
76586;BME280;65251;51.022;13.736;2023-07-28T00:28:35;98323.91;;;18.64;82.08
76586;BME280;65251;51.022;13.736;2023-07-28T00:29:06;98330.91;;;18.65;81.85
76586;BME280;65251;51.022;13.736;2023-07-28T00:29:37;98327.66;;;18.68;81.80
76586;BME280;65251;51.022;13.736;2023-07-28T00:30:11;98322.53;;;18.67;81.91
76586;BME280;65251;51.022;13.736;2023-07-28T00:30:43;98325.75;;;18.69;81.66
76586;BME280;65251;51.022;13.736;2023-07-28T00:31:14;98316.59;;;18.70;82.00
76586;BME280;65251;51.022;13.736;2023-07-28T00:31:45;98322.50;;;18.72;82.08
76586;BME280;65251;51.022;13.736;2023-07-28T00:32:16;98321.94;;;18.75;82.06
76586;BME280;65251;51.022;13.736;2023-07-28T00:32:48;98327.63;;;18.73;81.41
76586;BME280;65251;51.022;13.736;2023-07-28T00:33:19;98323.84;;;18.74;81.74
76586;BME280;65251;51.022;13.736;2023-07-28T00:33:49;98317.34;;;18.75;81.20
76586;BME280;65251;51.022;13.736;2023-07-28T00:34:20;98321.94;;;18.75;81.45
76586;BME280;65251;51.022;13.736;2023-07-28T00:34:52;98316.56;;;18.75;81.55
76586;BME280;65251;51.022;13.736;2023-07-28T00:35:23;98319.78;;;18.77;81.50
76586;BME280;65251;51.022;13.736;2023-07-28T00:35:54;98317.59;;;18.79;81.47
76586;BME280;65251;51.022;13.736;2023-07-28T00:36:25;98316.50;;;18.80;82.13
76586;BME280;65251;51.022;13.736;2023-07-28T00:36:57;98318.38;;;18.79;81.59
76586;BME280;65251;51.022;13.736;2023-07-28T00:37:27;98316.00;;;18.78;81.52
76586;BME280;65251;51.022;13.736;2023-07-28T00:37:58;98316.28;;;18.76;81.57
76586;BME280;65251;51.022;13.736;2023-07-28T00:38:29;98314.38;;;18.77;81.43
76586;BME280;65251;51.022;13.736;2023-07-28T00:39:01;98318.16;;;18.76;81.90
76586;BME280;65251;51.022;13.736;2023-07-28T00:39:31;98312.25;;;18.74;81.41
76586;BME280;65251;51.022;13.736;2023-07-28T00:40:03;98319.53;;;18.73;81.08
76586;BME280;65251;51.022;13.736;2023-07-28T00:40:35;98326.81;;;18.73;82.02
76586;BME280;65251;51.022;13.736;2023-07-28T00:41:06;98312.53;;;18.72;81.76
76586;BME280;65251;51.022;13.736;2023-07-28T00:41:36;98318.16;;;18.76;81.19
76586;BME280;65251;51.022;13.736;2023-07-28T00:42:07;98316.28;;;18.76;81.85
76586;BME280;65251;51.022;13.736;2023-07-28T00:42:40;98322.22;;;18.73;81.18
76586;BME280;65251;51.022;13.736;2023-07-28T00:43:11;98311.44;;;18.73;81.27
76586;BME280;65251;51.022;13.736;2023-07-28T00:43:42;98302.84;;;18.66;81.14
76586;BME280;65251;51.022;13.736;2023-07-28T00:44:13;98322.75;;;18.75;81.57
76586;BME280;65251;51.022;13.736;2023-07-28T00:44:45;98316.56;;;18.75;81.79
76586;BME280;65251;51.022;13.736;2023-07-28T00:45:17;98320.34;;;18.74;81.96
76586;BME280;65251;51.022;13.736;2023-07-28T00:45:48;98325.75;;;18.74;81.79
76586;BME280;65251;51.022;13.736;2023-07-28T00:46:19;98314.94;;;18.74;81.15
76586;BME280;65251;51.022;13.736;2023-07-28T00:46:52;98323.84;;;18.74;81.20
76586;BME280;65251;51.022;13.736;2023-07-28T00:47:24;98326.53;;;18.74;81.15
76586;BME280;65251;51.022;13.736;2023-07-28T00:47:55;98313.56;;;18.76;81.71
76586;BME280;65251;51.022;13.736;2023-07-28T00:48:28;98321.41;;;18.78;81.55
76586;BME280;65251;51.022;13.736;2023-07-28T00:49:00;98316.28;;;18.76;82.10
76586;BME280;65251;51.022;13.736;2023-07-28T00:49:32;98313.00;;;18.79;81.66
76586;BME280;65251;51.022;13.736;2023-07-28T00:50:03;98313.00;;;18.79;81.47
76586;BME280;65251;51.022;13.736;2023-07-28T00:50:34;98311.91;;;18.80;81.13
76586;BME280;65251;51.022;13.736;2023-07-28T00:51:07;98307.09;;;18.77;81.13
76586;BME280;65251;51.022;13.736;2023-07-28T00:51:38;98311.63;;;18.82;81.03
76586;BME280;65251;51.022;13.736;2023-07-28T00:52:10;98317.59;;;18.79;81.48
76586;BME280;65251;51.022;13.736;2023-07-28T00:52:42;98311.63;;;18.82;81.05
76586;BME280;65251;51.022;13.736;2023-07-28T00:53:13;98311.91;;;18.80;80.67
76586;BME280;65251;51.022;13.736;2023-07-28T00:53:45;98310.81;;;18.81;81.25
76586;BME280;65251;51.022;13.736;2023-07-28T00:54:17;98304.34;;;18.82;80.81
76586;BME280;65251;51.022;13.736;2023-07-28T00:54:49;98310.81;;;18.81;80.91
76586;BME280;65251;51.022;13.736;2023-07-28T00:55:20;98318.91;;;18.81;81.43
76586;BME280;65251;51.022;13.736;2023-07-28T00:55:52;98309.72;;;18.82;80.81
76586;BME280;65251;51.022;13.736;2023-07-28T00:56:23;98312.72;;;18.81;81.56
76586;BME280;65251;51.022;13.736;2023-07-28T00:56:55;98311.09;;;18.80;80.81
76586;BME280;65251;51.022;13.736;2023-07-28T00:57:26;98307.91;;;18.78;81.07
76586;BME280;65251;51.022;13.736;2023-07-28T00:57:57;98311.41;;;18.78;80.71
76586;BME280;65251;51.022;13.736;2023-07-28T00:58:29;98307.09;;;18.77;80.97
76586;BME280;65251;51.022;13.736;2023-07-28T00:59:01;98304.88;;;18.79;80.79
76586;BME280;65251;51.022;13.736;2023-07-28T00:59:32;98296.28;;;18.77;81.70
76586;BME280;65251;51.022;13.736;2023-07-28T01:00:04;98296.28;;;18.77;81.38
76586;BME280;65251;51.022;13.736;2023-07-28T01:00:37;98307.91;;;18.78;80.48
76586;BME280;65251;51.022;13.736;2023-07-28T01:01:09;98302.25;;;18.74;80.88
76586;BME280;65251;51.022;13.736;2023-07-28T01:01:40;98306.84;;;18.74;81.62
76586;BME280;65251;51.022;13.736;2023-07-28T01:02:11;98311.97;;;18.75;81.22
76586;BME280;65251;51.022;13.736;2023-07-28T01:02:43;98307.66;;;18.74;81.23
76586;BME280;65251;51.022;13.736;2023-07-28T01:03:15;98304.41;;;18.77;81.31
76586;BME280;65251;51.022;13.736;2023-07-28T01:03:46;98312.78;;;18.76;81.35
76586;BME280;65251;51.022;13.736;2023-07-28T01:04:17;98310.59;;;18.78;80.92
76586;BME280;65251;51.022;13.736;2023-07-28T01:04:50;98308.19;;;18.76;81.33
76586;BME280;65251;51.022;13.736;2023-07-28T01:05:26;98301.69;;;18.77;80.56
76586;BME280;65251;51.022;13.736;2023-07-28T01:06:10;98297.38;;;18.76;80.66
76586;BME280;65251;51.022;13.736;2023-07-28T01:06:53;98304.69;;;18.76;81.23
76586;BME280;65251;51.022;13.736;2023-07-28T01:07:32;98303.31;;;18.78;80.46
76586;BME280;65251;51.022;13.736;2023-07-28T01:08:14;98300.63;;;18.78;80.79
76586;BME280;65251;51.022;13.736;2023-07-28T01:08:53;98307.03;;;18.82;80.65
76586;BME280;65251;51.022;13.736;2023-07-28T01:09:36;98297.84;;;18.83;80.93
76586;BME280;65251;51.022;13.736;2023-07-28T01:10:13;98292.44;;;18.83;80.30
76586;BME280;65251;51.022;13.736;2023-07-28T01:10:46;98301.06;;;18.85;80.75
76586;BME280;65251;51.022;13.736;2023-07-28T01:11:17;98299.19;;;18.86;80.26
76586;BME280;65251;51.022;13.736;2023-07-28T01:11:54;98302.97;;;18.85;81.14
76586;BME280;65251;51.022;13.736;2023-07-28T01:12:25;98309.44;;;18.84;81.56
76586;BME280;65251;51.022;13.736;2023-07-28T01:12:57;98305.69;;;18.80;82.04
76586;BME280;65251;51.022;13.736;2023-07-28T01:13:27;98303.53;;;18.82;81.02
76586;BME280;65251;51.022;13.736;2023-07-28T01:13:58;98302.72;;;18.81;81.32
76586;BME280;65251;51.022;13.736;2023-07-28T01:14:29;98308.13;;;18.81;82.19
76586;BME280;65251;51.022;13.736;2023-07-28T01:15:01;98305.19;;;18.78;82.77
76586;BME280;65251;51.022;13.736;2023-07-28T01:15:32;98303.34;;;18.73;84.09
76586;BME280;65251;51.022;13.736;2023-07-28T01:16:04;98309.53;;;18.74;84.24
76586;BME280;65251;51.022;13.736;2023-07-28T01:16:36;98305.50;;;18.71;85.21
76586;BME280;65251;51.022;13.736;2023-07-28T01:17:06;98306.06;;;18.68;84.96
76586;BME280;65251;51.022;13.736;2023-07-28T01:17:37;98299.88;;;18.68;84.60
76586;BME280;65251;51.022;13.736;2023-07-28T01:18:08;98305.56;;;18.61;85.92
76586;BME280;65251;51.022;13.736;2023-07-28T01:18:40;98308.81;;;18.58;85.99
76586;BME280;65251;51.022;13.736;2023-07-28T01:19:12;98299.38;;;18.55;85.58
76586;BME280;65251;51.022;13.736;2023-07-28T01:19:43;98301.31;;;18.50;85.82
76586;BME280;65251;51.022;13.736;2023-07-28T01:20:16;98302.66;;;18.47;87.00
76586;BME280;65251;51.022;13.736;2023-07-28T01:20:47;98304.84;;;18.45;86.04
76586;BME280;65251;51.022;13.736;2023-07-28T01:21:30;98305.13;;;18.39;86.99
76586;BME280;65251;51.022;13.736;2023-07-28T01:22:22;98308.94;;;18.38;86.99
76586;BME280;65251;51.022;13.736;2023-07-28T01:23:11;98309.53;;;18.30;87.48
76586;BME280;65251;51.022;13.736;2023-07-28T01:23:53;98304.97;;;18.20;88.57
76586;BME280;65251;51.022;13.736;2023-07-28T01:24:34;98304.94;;;18.25;87.91
76586;BME280;65251;51.022;13.736;2023-07-28T01:25:28;98294.25;;;18.15;89.06
76586;BME280;65251;51.022;13.736;2023-07-28T01:26:05;98304.69;;;18.21;88.88
76586;BME280;65251;51.022;13.736;2023-07-28T01:26:39;98302.84;;;18.17;88.03
76586;BME280;65251;51.022;13.736;2023-07-28T01:27:10;98313.91;;;18.15;88.82
76586;BME280;65251;51.022;13.736;2023-07-28T01:27:43;98305.03;;;18.15;89.09
76586;BME280;65251;51.022;13.736;2023-07-28T01:28:15;98314.75;;;18.11;90.43
76586;BME280;65251;51.022;13.736;2023-07-28T01:28:48;98295.06;;;18.10;89.36
76586;BME280;65251;51.022;13.736;2023-07-28T01:29:21;98308.28;;;18.07;89.80
76586;BME280;65251;51.022;13.736;2023-07-28T01:29:53;98310.19;;;18.06;89.17
76586;BME280;65251;51.022;13.736;2023-07-28T01:30:24;98312.06;;;18.06;89.53
76586;BME280;65251;51.022;13.736;2023-07-28T01:30:57;98311.53;;;18.04;89.75
76586;BME280;65251;51.022;13.736;2023-07-28T01:31:28;98315.31;;;18.03;90.21
76586;BME280;65251;51.022;13.736;2023-07-28T01:31:59;98303.19;;;18.00;89.97
76586;BME280;65251;51.022;13.736;2023-07-28T01:32:31;98309.91;;;18.03;90.75
76586;BME280;65251;51.022;13.736;2023-07-28T01:33:05;98310.72;;;18.03;90.07
76586;BME280;65251;51.022;13.736;2023-07-28T01:33:36;98311.25;;;18.05;90.34
76586;BME280;65251;51.022;13.736;2023-07-28T01:34:08;98313.94;;;18.05;89.33
76586;BME280;65251;51.022;13.736;2023-07-28T01:34:39;98318.00;;;18.08;89.60
76586;BME280;65251;51.022;13.736;2023-07-28T01:35:10;98318.25;;;18.06;89.65
76586;BME280;65251;51.022;13.736;2023-07-28T01:35:40;98313.16;;;18.05;89.81
76586;BME280;65251;51.022;13.736;2023-07-28T01:36:12;98315.56;;;18.06;90.27
76586;BME280;65251;51.022;13.736;2023-07-28T01:36:43;98318.25;;;18.06;89.74
76586;BME280;65251;51.022;13.736;2023-07-28T01:37:14;98326.88;;;18.08;89.30
76586;BME280;65251;51.022;13.736;2023-07-28T01:37:44;98321.50;;;18.08;89.41
76586;BME280;65251;51.022;13.736;2023-07-28T01:38:21;98318.00;;;18.08;89.94
76586;BME280;65251;51.022;13.736;2023-07-28T01:38:51;98317.19;;;18.07;89.98
76586;BME280;65251;51.022;13.736;2023-07-28T01:39:22;98321.22;;;18.10;89.95
76586;BME280;65251;51.022;13.736;2023-07-28T01:39:53;98329.31;;;18.10;90.12
76586;BME280;65251;51.022;13.736;2023-07-28T01:40:25;98322.03;;;18.10;90.00
76586;BME280;65251;51.022;13.736;2023-07-28T01:40:56;98319.31;;;18.10;89.62
76586;BME280;65251;51.022;13.736;2023-07-28T01:41:26;98322.56;;;18.12;89.78
76586;BME280;65251;51.022;13.736;2023-07-28T01:41:58;98319.59;;;18.14;89.77
76586;BME280;65251;51.022;13.736;2023-07-28T01:42:29;98319.84;;;18.12;90.13
76586;BME280;65251;51.022;13.736;2023-07-28T01:43:01;98323.09;;;18.14;89.54
76586;BME280;65251;51.022;13.736;2023-07-28T01:43:32;98318.25;;;18.11;89.94
76586;BME280;65251;51.022;13.736;2023-07-28T01:44:03;98321.75;;;18.12;90.11
76586;BME280;65251;51.022;13.736;2023-07-28T01:44:35;98328.22;;;18.11;90.63
76586;BME280;65251;51.022;13.736;2023-07-28T01:45:06;98315.56;;;18.06;90.92
76586;BME280;65251;51.022;13.736;2023-07-28T01:45:38;98321.50;;;18.08;91.55
76586;BME280;65251;51.022;13.736;2023-07-28T01:46:08;98315.84;;;18.05;90.71
76586;BME280;65251;51.022;13.736;2023-07-28T01:46:40;98318.28;;;18.01;91.70
76586;BME280;65251;51.022;13.736;2023-07-28T01:47:11;98322.84;;;18.01;91.68
76586;BME280;65251;51.022;13.736;2023-07-28T01:47:42;98318.84;;;17.98;91.61
76586;BME280;65251;51.022;13.736;2023-07-28T01:48:12;98317.50;;;17.96;92.08
76586;BME280;65251;51.022;13.736;2023-07-28T01:48:44;98315.91;;;17.95;92.89
76586;BME280;65251;51.022;13.736;2023-07-28T01:49:15;98304.31;;;17.94;92.39
76586;BME280;65251;51.022;13.736;2023-07-28T01:49:46;98315.63;;;17.96;91.36
76586;BME280;65251;51.022;13.736;2023-07-28T01:50:18;98304.84;;;17.96;91.73
76586;BME280;65251;51.022;13.736;2023-07-28T01:50:48;98312.94;;;17.96;91.56
76586;BME280;65251;51.022;13.736;2023-07-28T01:51:19;98314.81;;;17.96;91.81
76586;BME280;65251;51.022;13.736;2023-07-28T01:51:51;98309.69;;;17.94;92.22
76586;BME280;65251;51.022;13.736;2023-07-28T01:52:22;98316.72;;;17.95;92.28
76586;BME280;65251;51.022;13.736;2023-07-28T01:52:53;98303.50;;;17.94;92.06
76586;BME280;65251;51.022;13.736;2023-07-28T01:53:23;98300.28;;;17.92;92.52
76586;BME280;65251;51.022;13.736;2023-07-28T01:53:55;98307.81;;;17.89;93.08
76586;BME280;65251;51.022;13.736;2023-07-28T01:54:26;98306.22;;;17.88;92.95
76586;BME280;65251;51.022;13.736;2023-07-28T01:54:57;98301.38;;;17.85;92.66
76586;BME280;65251;51.022;13.736;2023-07-28T01:55:28;98308.38;;;17.86;92.25
76586;BME280;65251;51.022;13.736;2023-07-28T01:55:58;98311.88;;;17.82;92.28
76586;BME280;65251;51.022;13.736;2023-07-28T01:56:31;98307.56;;;17.81;93.28
76586;BME280;65251;51.022;13.736;2023-07-28T01:57:04;98302.19;;;17.81;93.36
76586;BME280;65251;51.022;13.736;2023-07-28T01:57:35;98308.09;;;17.83;92.87
76586;BME280;65251;51.022;13.736;2023-07-28T01:58:05;98306.78;;;17.80;92.77
76586;BME280;65251;51.022;13.736;2023-07-28T01:58:37;98302.72;;;17.83;92.77
76586;BME280;65251;51.022;13.736;2023-07-28T01:59:08;98303.81;;;17.82;92.65
76586;BME280;65251;51.022;13.736;2023-07-28T01:59:39;98304.34;;;17.84;92.96
76586;BME280;65251;51.022;13.736;2023-07-28T02:00:10;98309.72;;;17.84;92.67
76586;BME280;65251;51.022;13.736;2023-07-28T02:00:42;98303.81;;;17.82;92.48
76586;BME280;65251;51.022;13.736;2023-07-28T02:01:13;98304.34;;;17.79;93.20
76586;BME280;65251;51.022;13.736;2023-07-28T02:01:44;98308.97;;;17.78;93.09
76586;BME280;65251;51.022;13.736;2023-07-28T02:02:15;98294.94;;;17.76;93.07
76586;BME280;65251;51.022;13.736;2023-07-28T02:02:46;98300.88;;;17.78;92.96
76586;BME280;65251;51.022;13.736;2023-07-28T02:03:17;98297.06;;;17.79;93.28
76586;BME280;65251;51.022;13.736;2023-07-28T02:03:48;98297.59;;;17.81;93.34
76586;BME280;65251;51.022;13.736;2023-07-28T02:04:19;98297.06;;;17.84;93.00
76586;BME280;65251;51.022;13.736;2023-07-28T02:04:50;98299.47;;;17.86;92.71
76586;BME280;65251;51.022;13.736;2023-07-28T02:05:21;98301.91;;;17.87;91.72
76586;BME280;65251;51.022;13.736;2023-07-28T02:05:52;98305.41;;;17.88;92.01
76586;BME280;65251;51.022;13.736;2023-07-28T02:06:24;98310.53;;;17.89;92.50
76586;BME280;65251;51.022;13.736;2023-07-28T02:06:54;98305.94;;;17.90;92.28
76586;BME280;65251;51.022;13.736;2023-07-28T02:07:25;98308.91;;;17.94;92.22
76586;BME280;65251;51.022;13.736;2023-07-28T02:07:56;98304.84;;;17.91;92.39
76586;BME280;65251;51.022;13.736;2023-07-28T02:08:27;98301.06;;;17.92;92.13
76586;BME280;65251;51.022;13.736;2023-07-28T02:08:59;98307.56;;;17.91;92.26
76586;BME280;65251;51.022;13.736;2023-07-28T02:09:30;98300.00;;;17.93;92.51
76586;BME280;65251;51.022;13.736;2023-07-28T02:10:01;98315.63;;;17.96;92.13
76586;BME280;65251;51.022;13.736;2023-07-28T02:10:31;98311.59;;;17.94;92.10
76586;BME280;65251;51.022;13.736;2023-07-28T02:11:03;98303.50;;;17.94;92.66
76586;BME280;65251;51.022;13.736;2023-07-28T02:11:34;98299.72;;;17.95;91.94
76586;BME280;65251;51.022;13.736;2023-07-28T02:12:07;98312.13;;;17.96;92.19
76586;BME280;65251;51.022;13.736;2023-07-28T02:12:38;98304.84;;;17.96;91.79
76586;BME280;65251;51.022;13.736;2023-07-28T02:13:10;98301.06;;;17.97;92.05
76586;BME280;65251;51.022;13.736;2023-07-28T02:13:41;98299.44;;;17.96;91.53
76586;BME280;65251;51.022;13.736;2023-07-28T02:14:12;98300.25;;;17.97;92.16
76586;BME280;65251;51.022;13.736;2023-07-28T02:14:42;98311.84;;;17.92;91.99
76586;BME280;65251;51.022;13.736;2023-07-28T02:15:14;98306.47;;;17.92;92.42
76586;BME280;65251;51.022;13.736;2023-07-28T02:15:45;98309.44;;;17.90;92.27
76586;BME280;65251;51.022;13.736;2023-07-28T02:16:16;98306.75;;;17.90;91.91
76586;BME280;65251;51.022;13.736;2023-07-28T02:16:48;98311.06;;;17.86;92.15
76586;BME280;65251;51.022;13.736;2023-07-28T02:17:18;98311.06;;;17.86;91.47
76586;BME280;65251;51.022;13.736;2023-07-28T02:17:49;98308.09;;;17.88;92.40
76586;BME280;65251;51.022;13.736;2023-07-28T02:18:21;98308.91;;;17.88;91.86
76586;BME280;65251;51.022;13.736;2023-07-28T02:18:52;98308.09;;;17.88;91.68
76586;BME280;65251;51.022;13.736;2023-07-28T02:19:24;98308.09;;;17.88;91.84
76586;BME280;65251;51.022;13.736;2023-07-28T02:19:55;98314.03;;;17.90;91.84
76586;BME280;65251;51.022;13.736;2023-07-28T02:20:27;98307.03;;;17.89;91.34
76586;BME280;65251;51.022;13.736;2023-07-28T02:20:57;98309.19;;;17.82;91.53
76586;BME280;65251;51.022;13.736;2023-07-28T02:21:28;98309.72;;;17.89;91.90
76586;BME280;65251;51.022;13.736;2023-07-28T02:21:59;98307.03;;;17.89;91.06
76586;BME280;65251;51.022;13.736;2023-07-28T02:22:31;98310.78;;;17.88;91.74
76586;BME280;65251;51.022;13.736;2023-07-28T02:23:02;98312.94;;;17.86;91.57
76586;BME280;65251;51.022;13.736;2023-07-28T02:23:32;98309.44;;;17.85;92.05
76586;BME280;65251;51.022;13.736;2023-07-28T02:24:04;98310.00;;;17.82;92.05
76586;BME280;65251;51.022;13.736;2023-07-28T02:24:35;98320.50;;;17.84;92.20
76586;BME280;65251;51.022;13.736;2023-07-28T02:25:06;98318.63;;;17.84;92.20
76586;BME280;65251;51.022;13.736;2023-07-28T02:25:37;98321.03;;;17.86;91.32
76586;BME280;65251;51.022;13.736;2023-07-28T02:26:09;98312.69;;;17.87;92.20
76586;BME280;65251;51.022;13.736;2023-07-28T02:26:40;98308.91;;;17.88;91.66
76586;BME280;65251;51.022;13.736;2023-07-28T02:27:12;98309.72;;;17.89;91.58
76586;BME280;65251;51.022;13.736;2023-07-28T02:27:43;98310.25;;;17.91;91.41
76586;BME280;65251;51.022;13.736;2023-07-28T02:28:15;98317.53;;;17.90;91.19
76586;BME280;65251;51.022;13.736;2023-07-28T02:28:45;98316.19;;;17.88;91.51
76586;BME280;65251;51.022;13.736;2023-07-28T02:29:16;98316.47;;;17.86;91.55
76586;BME280;65251;51.022;13.736;2023-07-28T02:29:47;98304.59;;;17.87;91.31
76586;BME280;65251;51.022;13.736;2023-07-28T02:30:19;98309.19;;;17.87;91.38
76586;BME280;65251;51.022;13.736;2023-07-28T02:30:50;98309.44;;;17.85;92.22
76586;BME280;65251;51.022;13.736;2023-07-28T02:31:20;98302.97;;;17.86;92.35
76586;BME280;65251;51.022;13.736;2023-07-28T02:31:52;98304.34;;;17.84;92.13
76586;BME280;65251;51.022;13.736;2023-07-28T02:32:23;98307.03;;;17.84;92.86
76586;BME280;65251;51.022;13.736;2023-07-28T02:32:54;98299.50;;;17.81;92.66
76586;BME280;65251;51.022;13.736;2023-07-28T02:33:25;98303.81;;;17.82;92.00
76586;BME280;65251;51.022;13.736;2023-07-28T02:33:59;98305.41;;;17.83;92.33
76586;BME280;65251;51.022;13.736;2023-07-28T02:34:30;98294.63;;;17.83;92.29
76586;BME280;65251;51.022;13.736;2023-07-28T02:35:01;98305.41;;;17.83;92.78
76586;BME280;65251;51.022;13.736;2023-07-28T02:35:32;98295.72;;;17.82;92.02
76586;BME280;65251;51.022;13.736;2023-07-28T02:36:04;98306.78;;;17.80;92.18
76586;BME280;65251;51.022;13.736;2023-07-28T02:36:35;98313.50;;;17.83;92.83
76586;BME280;65251;51.022;13.736;2023-07-28T02:37:05;98312.16;;;17.80;93.13
76586;BME280;65251;51.022;13.736;2023-07-28T02:37:36;98303.00;;;17.81;93.46
76586;BME280;65251;51.022;13.736;2023-07-28T02:38:08;98301.09;;;17.82;92.69
76586;BME280;65251;51.022;13.736;2023-07-28T02:38:39;98308.09;;;17.83;92.81
76586;BME280;65251;51.022;13.736;2023-07-28T02:39:09;98308.91;;;17.83;92.74
76586;BME280;65251;51.022;13.736;2023-07-28T02:39:41;98303.53;;;17.83;92.98
76586;BME280;65251;51.022;13.736;2023-07-28T02:40:12;98291.13;;;17.82;93.30
76586;BME280;65251;51.022;13.736;2023-07-28T02:40:43;98301.91;;;17.82;93.54
76586;BME280;65251;51.022;13.736;2023-07-28T02:41:15;98301.09;;;17.82;93.30
76586;BME280;65251;51.022;13.736;2023-07-28T02:41:46;98295.72;;;17.82;93.60
76586;BME280;65251;51.022;13.736;2023-07-28T02:42:18;98291.97;;;17.78;93.15
76586;BME280;65251;51.022;13.736;2023-07-28T02:42:49;98294.69;;;17.78;93.96
76586;BME280;65251;51.022;13.736;2023-07-28T02:43:20;98297.06;;;17.79;93.46
76586;BME280;65251;51.022;13.736;2023-07-28T02:43:51;98287.09;;;17.80;93.57
76586;BME280;65251;51.022;13.736;2023-07-28T02:44:22;98296.78;;;17.81;93.57
76586;BME280;65251;51.022;13.736;2023-07-28T02:44:53;98291.13;;;17.82;93.61
76586;BME280;65251;51.022;13.736;2023-07-28T02:45:25;98293.03;;;17.82;92.91
76586;BME280;65251;51.022;13.736;2023-07-28T02:45:57;98285.47;;;17.79;92.91
76586;BME280;65251;51.022;13.736;2023-07-28T02:46:28;98293.56;;;17.84;92.93